Aérodrome :
LOGIN :

S'inscrire | Disclaimer

   EN    FR    IT 

 










Légende :    VFR   VFR Marginal   IFR   IFR Intensif   IFR Très Intensif
Visi : 
Plafond : 
>= 8 km
>= 3000ft
5 à 8 km
1000 à 3000 ft
1500m à 5 km
500 à 1000 ft
800 à 1500m
200 à 500 ft
< 800m
< 200 ft
Symboles :   Orages  Brouillard  Fortes neiges  Fortes précipitations  Vent > 20 kt
SIGMETs :   Divers  Orages  Givrage  Turbulence  Onde Orograph.  Cendres Volcan.






- Altitude de l'aérodrome : 297 ft


EGVP - Middle Wallop

DERNIER METAR :
  • 171120Z 33014G24KT 9999 SCT040 BKN250 10/M01 Q1016 NOSIG RMK BLU BLU

METARs EXPIRÉS :
  • 171050Z 33015KT 9999 SCT034 BKN250 09/M00 Q1016 NOSIG RMK BLU BLU
  • 171020Z 33013KT 9999 FEW033 BKN250 09/01 Q1016 NOSIG RMK BLU BLU
  • 170950Z 31014KT 9999 SCT030 BKN250 08/01 Q1017 NOSIG RMK BLU BLU
  • 170920Z 33012KT 9999 SCT028 BKN230 09/01 Q1017 NOSIG RMK BLU BLU
  • 170850Z 31013KT 9999 SCT027 08/02 Q1017 NOSIG RMK BLU BLU
  • 170820Z 31011KT 9999 FEW020 SCT063 07/02 Q1017 NOSIG RMK BLU BLU
  • 170750Z 31011KT 9999 FEW020 BKN066 07/03 Q1017 NOSIG RMK BLU BLU
  • 170720Z 30010KT 9999 FEW020 07/03 Q1017 NOSIG RMK BLU BLU
  • 170650Z 29007KT 9999 FEW036 06/04 Q1017 NOSIG RMK BLU BLU
  • 170620Z AUTO 28006KT 9999 FEW034/// 05/03 Q1017

TAF TAF EGVP
Valide du 17 à 12h jusqu'au 17 à 21h UTC


171025Z 1712/1721 32014KT 9999 SCT040
PROB30
TEMPO 1712/1717 32015G25KT
ATIS : +44 1980 674 142



MET'MAP, la Météo Aéronautique d'un coup d'oeil ! - Copyright ORBIFLY Décembre 2007 - Disclaimer

ORBIFLY MET'MAP TEAM :

Programmation & Développement : Alexandra Zaïnal
Sur une idée originale de : Baudouin d'Aumeries
Soutien technique & logistique : Manuel Goepfert
Assistance : Marc-Olivier Méhu




SOURCES & CREDITS :

   NOAA